Time;durP1;ratioP1;P1;durP2;ratioP2;P2;SDS_P1;SDS_P2;PMS_P1;PMS_P2;Temp;Humidity;BMP_temperature;BMP_pressure;BME280_temperature;BME280_humidity;BME280_pressure;Samples;Min_cycle;Max_cycle;Signal;HPM_P1;HPM_P2
2022/01/07 00:00:22;;;;;;;17.80;6.60;;;;;;;1.15;69.51;97308.94;5024448;28;20512;-67
2022/01/07 00:02:51;;;;;;;17.70;6.53;;;;;;;1.20;69.39;97308.13;5022580;28;20064;-67
2022/01/07 00:05:18;;;;;;;23.23;6.18;;;;;;;1.28;69.08;97312.94;5022489;28;20049;-66
2022/01/07 00:07:45;;;;;;;14.60;6.05;;;;;;;1.24;69.21;97301.91;5026118;28;20045;-67
2022/01/07 00:10:15;;;;;;;21.02;6.45;;;;;;;1.29;68.96;97298.38;5035053;28;20041;-67
2022/01/07 00:12:41;;;;;;;19.02;6.57;;;;;;;1.29;68.75;97303.00;5036716;28;20048;-68
2022/01/07 00:15:08;;;;;;;13.15;5.50;;;;;;;1.29;68.64;97297.59;5045974;28;20064;-66
2022/01/07 00:17:34;;;;;;;15.27;5.75;;;;;;;1.30;68.62;97299.22;5018523;28;20041;-67
2022/01/07 00:20:02;;;;;;;18.35;6.03;;;;;;;1.30;68.33;97302.69;5049889;28;20045;-67
2022/01/07 00:22:29;;;;;;;18.60;6.63;;;;;;;1.33;68.11;97317.50;5050172;28;20083;-66
2022/01/07 00:24:55;;;;;;;19.20;5.65;;;;;;;1.25;68.10;97298.16;5047997;28;20045;-64
2022/01/07 00:27:23;;;;;;;17.02;6.18;;;;;;;1.23;68.14;97308.38;5049735;28;20060;-66
2022/01/07 00:29:52;;;;;;;14.93;5.53;;;;;;;1.23;67.87;97304.88;5047913;28;20064;-69
2022/01/07 00:32:18;;;;;;;17.00;5.70;;;;;;;1.13;67.66;97306.53;5039727;28;20063;-67
2022/01/07 00:34:45;;;;;;;16.70;5.72;;;;;;;1.18;67.48;97313.78;5047899;28;20049;-66
2022/01/07 00:37:12;;;;;;;15.45;4.85;;;;;;;1.24;67.37;97309.19;5051503;28;20060;-66
2022/01/07 00:39:38;;;;;;;13.43;5.13;;;;;;;1.25;67.16;97306.22;5045437;28;20114;-68
2022/01/07 00:42:06;;;;;;;13.23;4.78;;;;;;;1.23;66.88;97304.88;5057181;28;20139;-67
2022/01/07 00:44:33;;;;;;;15.48;4.80;;;;;;;1.24;66.80;97309.97;5048052;28;20053;-67
2022/01/07 00:46:59;;;;;;;15.38;4.97;;;;;;;1.21;66.70;97312.44;5047864;28;20080;-69
2022/01/07 00:49:26;;;;;;;15.18;4.63;;;;;;;1.17;66.20;97314.84;5045685;28;20493;-68
2022/01/07 00:51:52;;;;;;;15.13;5.57;;;;;;;1.10;66.41;97314.34;5049295;28;20049;-69
2022/01/07 00:54:19;;;;;;;12.55;5.15;;;;;;;1.08;66.05;97320.00;5049404;28;20494;-72
2022/01/07 00:56:46;;;;;;;15.02;5.20;;;;;;;1.06;66.07;97311.41;5047227;28;20041;-72
2022/01/07 00:59:12;;;;;;;14.40;4.70;;;;;;;1.06;66.29;97319.47;5041499;28;20041;-72
2022/01/07 01:01:40;;;;;;;12.02;4.22;;;;;;;1.10;66.09;97319.75;5044211;28;20344;-75
2022/01/07 01:04:06;;;;;;;10.73;3.65;;;;;;;1.10;65.80;97325.91;5038201;28;20094;-75
2022/01/07 01:06:33;;;;;;;11.50;3.80;;;;;;;1.10;65.54;97323.22;5037324;28;20107;-75
2022/01/07 01:08:59;;;;;;;13.50;3.83;;;;;;;1.04;65.46;97312.75;5043724;28;20067;-73
2022/01/07 01:11:28;;;;;;;12.32;3.92;;;;;;;1.08;65.30;97327.25;5044834;28;20090;-73
2022/01/07 01:13:54;;;;;;;14.20;3.47;;;;;;;1.08;65.14;97324.56;5049243;28;20040;-74
2022/01/07 01:16:21;;;;;;;10.20;3.15;;;;;;;1.08;65.11;97320.00;5053012;28;20044;-72
2022/01/07 01:18:49;;;;;;;12.33;3.13;;;;;;;1.11;64.78;97318.66;5055650;28;20079;-74
2022/01/07 01:21:15;;;;;;;12.68;2.90;;;;;;;1.10;64.52;97317.84;5046384;28;20502;-73
2022/01/07 01:23:45;;;;;;;9.40;2.55;;;;;;;1.08;64.28;97316.50;5047265;28;20439;-73
2022/01/07 01:26:12;;;;;;;7.72;2.70;;;;;;;1.14;64.41;97318.09;5050681;28;20051;-73
2022/01/07 01:28:38;;;;;;;7.40;2.33;;;;;;;1.11;64.34;97322.13;5035429;28;20064;-73
2022/01/07 01:31:05;;;;;;;11.50;2.72;;;;;;;1.06;64.24;97327.53;5035365;28;20072;-73
2022/01/07 01:33:30;;;;;;;9.25;2.58;;;;;;;1.10;64.33;97325.13;5048112;28;20094;-73
2022/01/07 01:35:58;;;;;;;13.75;2.75;;;;;;;1.11;64.42;97327.53;5062003;28;20120;-74
2022/01/07 01:38:27;;;;;;;9.52;2.75;;;;;;;1.11;64.12;97332.91;5046861;28;20493;-74
2022/01/07 01:40:54;;;;;;;9.73;2.53;;;;;;;1.11;64.05;97327.53;5038130;28;20506;-74
2022/01/07 01:43:20;;;;;;;9.43;2.60;;;;;;;1.14;63.88;97336.94;5049701;28;20143;-74
2022/01/07 01:45:46;;;;;;;8.10;2.58;;;;;;;1.07;63.80;97333.72;5045377;28;20048;-74
2022/01/07 01:48:12;;;;;;;8.90;2.55;;;;;;;1.06;63.71;97330.25;5061722;28;20106;-72
2022/01/07 01:50:39;;;;;;;7.90;2.53;;;;;;;1.07;63.78;97344.50;5039055;28;20057;-73
2022/01/07 01:53:06;;;;;;;7.75;2.30;;;;;;;1.04;63.42;97329.72;5034470;28;20037;-73
2022/01/07 01:55:32;;;;;;;7.07;2.03;;;;;;;1.01;63.56;97341.00;5034017;28;20050;-73
2022/01/07 01:57:58;;;;;;;7.03;2.28;;;;;;;1.06;63.30;97345.56;5048412;28;20041;-73
2022/01/07 02:00:26;;;;;;;9.00;2.20;;;;;;;1.10;63.07;97338.59;5041670;28;20151;-73
2022/01/07 02:02:53;;;;;;;9.20;2.30;;;;;;;1.13;62.98;97340.72;5052823;28;20131;-73
2022/01/07 02:05:22;;;;;;;6.15;1.90;;;;;;;1.05;62.96;97322.44;5050751;28;20049;-74
2022/01/07 02:07:48;;;;;;;7.18;2.47;;;;;;;1.04;62.64;97328.88;5045405;28;20144;-72
2022/01/07 02:10:17;;;;;;;5.60;1.77;;;;;;;1.05;62.53;97342.09;5059809;28;20049;-73
2022/01/07 02:12:44;;;;;;;8.75;1.98;;;;;;;1.04;62.58;97332.41;5044379;28;20040;-73
2022/01/07 02:15:15;;;;;;;8.27;2.10;;;;;;;1.04;62.39;97342.34;5049557;28;20416;-73
2022/01/07 02:17:43;;;;;;;12.18;1.95;;;;;;;1.06;62.48;97330.25;5045423;28;20037;-75
2022/01/07 02:20:11;;;;;;;7.53;1.92;;;;;;;1.02;62.01;97342.63;5064949;28;20064;-75
2022/01/07 02:22:38;;;;;;;4.45;1.50;;;;;;;0.89;62.15;97333.22;5047187;28;20053;-75
2022/01/07 02:25:08;;;;;;;6.85;1.90;;;;;;;1.03;61.93;97346.13;5044943;28;20530;-73
2022/01/07 02:27:37;;;;;;;5.25;1.60;;;;;;;0.97;62.09;97359.59;5027846;28;20387;-73
2022/01/07 02:30:06;;;;;;;7.10;1.95;;;;;;;0.96;62.18;97357.97;5039762;28;20418;-73
2022/01/07 02:32:33;;;;;;;6.00;1.80;;;;;;;0.91;62.27;97357.19;5038882;28;20103;-72
2022/01/07 02:34:59;;;;;;;6.10;1.90;;;;;;;0.87;62.04;97364.97;5046351;28;20055;-72
2022/01/07 02:37:27;;;;;;;8.45;1.92;;;;;;;0.88;62.29;97369.28;5047744;28;20537;-73
2022/01/07 02:39:54;;;;;;;5.90;1.85;;;;;;;0.94;62.00;97367.41;5042010;28;20160;-73
2022/01/07 02:42:25;;;;;;;6.82;1.83;;;;;;;0.97;62.00;97369.53;5029554;28;20057;-72
2022/01/07 02:44:54;;;;;;;6.22;1.63;;;;;;;0.90;62.07;97375.19;5060038;28;20040;-72
2022/01/07 02:47:21;;;;;;;6.28;2.33;;;;;;;0.88;62.08;97369.28;5043906;28;20057;-72
2022/01/07 02:49:47;;;;;;;5.37;1.77;;;;;;;0.88;61.95;97379.25;5045871;28;20079;-72
2022/01/07 02:52:14;;;;;;;5.65;1.80;;;;;;;0.87;61.99;97381.13;5053636;28;20307;-73
2022/01/07 02:54:44;;;;;;;4.95;1.70;;;;;;;0.83;62.22;97390.81;5067139;28;20060;-73
2022/01/07 02:57:11;;;;;;;5.07;1.70;;;;;;;0.87;62.06;97383.81;5051862;28;20068;-73
2022/01/07 02:59:37;;;;;;;9.48;2.17;;;;;;;0.91;62.09;97384.88;5052019;28;20152;-73
2022/01/07 03:02:06;;;;;;;6.28;1.85;;;;;;;0.77;62.32;97360.41;5037690;28;20041;-73
2022/01/07 03:04:32;;;;;;;5.40;1.83;;;;;;;1.02;62.30;97395.66;5045458;28;20050;-74
2022/01/07 03:06:58;;;;;;;6.78;1.80;;;;;;;1.02;62.17;97385.69;5046778;28;20045;-73
2022/01/07 03:09:24;;;;;;;4.85;1.65;;;;;;;0.96;61.72;97397.53;5052060;28;20056;-73
2022/01/07 03:11:52;;;;;;;5.25;1.77;;;;;;;0.92;61.13;97385.69;5062636;28;20041;-73
2022/01/07 03:14:18;;;;;;;16.27;4.88;;;;;;;0.89;61.12;97392.41;5060258;28;20057;-73
2022/01/07 03:16:44;;;;;;;11.82;2.95;;;;;;;0.93;61.02;97390.00;5048867;28;20049;-73
2022/01/07 03:19:10;;;;;;;6.15;1.83;;;;;;;0.85;60.88;97392.16;5055876;28;20081;-72
2022/01/07 03:21:36;;;;;;;6.25;1.95;;;;;;;0.90;60.67;97394.03;5045683;28;20518;-73
2022/01/07 03:24:03;;;;;;;4.97;1.55;;;;;;;0.91;60.38;97390.25;5040175;28;20441;-72
2022/01/07 03:26:30;;;;;;;5.30;1.38;;;;;;;0.90;60.51;97394.03;5040706;28;20065;-73
2022/01/07 03:28:57;;;;;;;4.47;1.30;;;;;;;0.93;60.28;97396.19;5047379;28;20056;-71
2022/01/07 03:31:24;;;;;;;4.35;1.35;;;;;;;0.91;60.17;97386.78;5050047;28;20045;-72
2022/01/07 03:33:50;;;;;;;4.32;1.52;;;;;;;0.98;60.19;97400.75;5034295;28;20497;-72
2022/01/07 03:36:16;;;;;;;6.57;1.80;;;;;;;0.93;60.33;97398.06;5046344;28;20045;-71
2022/01/07 03:38:42;;;;;;;5.50;1.52;;;;;;;0.92;60.25;97393.78;5051452;28;20665;-72
2022/01/07 03:41:08;;;;;;;4.82;1.45;;;;;;;0.96;60.41;97392.16;5043988;28;20060;-74
2022/01/07 03:43:35;;;;;;;6.95;1.65;;;;;;;0.95;60.44;97390.53;5052213;28;20045;-74
2022/01/07 03:46:03;;;;;;;6.30;1.63;;;;;;;0.99;60.41;97402.38;5050172;28;20421;-73
2022/01/07 03:48:29;;;;;;;7.60;1.55;;;;;;;0.99;60.46;97405.88;5050829;28;20549;-73
2022/01/07 03:50:56;;;;;;;5.20;1.65;;;;;;;0.99;60.33;97402.38;5054548;28;20040;-72
2022/01/07 03:53:25;;;;;;;6.93;1.70;;;;;;;1.01;60.47;97404.78;5048258;28;20448;-72
2022/01/07 03:55:54;;;;;;;4.95;1.88;;;;;;;0.97;60.29;97396.44;5033392;28;20050;-73
2022/01/07 03:58:20;;;;;;;5.32;1.65;;;;;;;1.01;60.39;97400.22;5035605;28;20920;-73
2022/01/07 04:00:49;;;;;;;7.72;2.25;;;;;;;0.84;60.16;97371.69;5055625;28;20049;-72
2022/01/07 04:03:19;;;;;;;6.10;1.92;;;;;;;1.01;60.64;97396.72;5049076;28;20045;-72
2022/01/07 04:05:48;;;;;;;6.90;2.00;;;;;;;0.98;60.46;97406.94;5035684;28;20107;-72
2022/01/07 04:08:14;;;;;;;7.85;2.58;;;;;;;0.94;60.54;97394.31;5034963;28;20045;-73
2022/01/07 04:10:41;;;;;;;8.43;2.40;;;;;;;0.92;60.49;97397.25;5044662;28;20076;-73
2022/01/07 04:13:10;;;;;;;8.07;2.30;;;;;;;0.99;60.53;97410.44;5034345;28;20421;-73
2022/01/07 04:15:37;;;;;;;6.13;2.20;;;;;;;0.98;60.60;97409.66;5052461;28;20420;-74
2022/01/07 04:18:03;;;;;;;7.60;2.22;;;;;;;0.93;60.46;97398.06;5054942;28;20152;-74
2022/01/07 04:20:32;;;;;;;6.35;2.10;;;;;;;0.92;60.57;97405.31;5028376;28;20052;-74
2022/01/07 04:23:00;;;;;;;8.40;2.38;;;;;;;0.88;60.45;97417.72;5049623;28;20421;-74
2022/01/07 04:25:27;;;;;;;5.78;2.30;;;;;;;0.91;60.56;97419.06;5049560;28;20432;-74
2022/01/07 04:27:56;;;;;;;6.43;2.00;;;;;;;0.84;60.56;97427.41;5050017;28;20063;-73
2022/01/07 04:30:24;;;;;;;11.70;2.20;;;;;;;0.78;61.14;97418.53;5040209;28;20517;-72
2022/01/07 04:32:52;;;;;;;6.70;2.33;;;;;;;0.83;61.02;97409.66;5042665;28;20048;-73
2022/01/07 04:35:22;;;;;;;6.88;2.20;;;;;;;0.68;61.03;97403.19;5051109;28;20628;-73
2022/01/07 04:37:51;;;;;;;13.55;2.53;;;;;;;0.74;61.35;97411.25;5049391;28;20056;-71
2022/01/07 04:40:17;;;;;;;7.88;2.30;;;;;;;0.81;61.62;97427.97;5041464;28;20068;-71
2022/01/07 04:42:45;;;;;;;6.78;1.83;;;;;;;0.76;61.78;97415.31;5032611;28;20041;-71
2022/01/07 04:45:14;;;;;;;7.75;2.00;;;;;;;0.86;61.59;97433.31;5050460;28;20072;-72
2022/01/07 04:47:42;;;;;;;4.80;1.80;;;;;;;0.72;61.86;97437.63;5048793;28;20048;-72
2022/01/07 04:50:13;;;;;;;7.38;1.85;;;;;;;0.76;61.68;97431.44;5032678;28;21719;-72
2022/01/07 04:52:44;;;;;;;8.85;1.67;;;;;;;0.80;61.75;97443.28;5046075;28;20073;-72
2022/01/07 04:55:13;;;;;;;8.15;1.77;;;;;;;0.82;62.01;97441.13;5041339;28;20053;-72
2022/01/07 04:57:40;;;;;;;6.00;1.50;;;;;;;0.80;61.99;97432.50;5042420;28;20068;-72
2022/01/07 05:00:07;;;;;;;4.50;1.70;;;;;;;0.81;62.20;97442.19;5041099;28;20080;-73
2022/01/07 05:02:33;;;;;;;6.15;2.00;;;;;;;0.82;62.05;97445.72;5038275;28;20056;-74
2022/01/07 05:04:59;;;;;;;6.55;1.70;;;;;;;0.89;62.46;97454.31;5037159;28;20511;-74
2022/01/07 05:07:26;;;;;;;5.72;1.80;;;;;;;0.80;62.42;97447.88;5038052;28;20537;-73
2022/01/07 05:09:52;;;;;;;3.63;1.60;;;;;;;0.87;62.15;97459.16;5053556;28;20048;-73
2022/01/07 05:12:23;;;;;;;5.20;1.75;;;;;;;0.81;62.24;97457.56;5049670;28;20072;-74
2022/01/07 05:14:49;;;;;;;5.18;1.70;;;;;;;0.79;61.58;97465.88;5034204;28;20303;-74
2022/01/07 05:17:18;;;;;;;5.05;1.70;;;;;;;0.81;62.13;97469.09;5036601;28;20417;-73
2022/01/07 05:19:44;;;;;;;5.63;1.70;;;;;;;0.81;62.25;97477.19;5048786;28;20056;-73
2022/01/07 05:22:11;;;;;;;5.00;1.70;;;;;;;0.80;62.25;97472.88;5038067;28;20088;-72
2022/01/07 05:24:37;;;;;;;3.97;1.48;;;;;;;0.82;62.62;97481.47;5041985;28;20040;-72
2022/01/07 05:27:06;;;;;;;5.43;1.75;;;;;;;0.83;63.15;97488.47;5035072;28;20509;-73
2022/01/07 05:29:35;;;;;;;4.57;1.80;;;;;;;0.86;63.21;97489.84;5044130;28;20481;-74
2022/01/07 05:32:02;;;;;;;4.53;1.60;;;;;;;0.80;63.12;97494.41;5040257;28;20413;-71
2022/01/07 05:34:28;;;;;;;4.32;1.80;;;;;;;0.81;63.50;97498.69;5039662;28;20068;-72
2022/01/07 05:36:54;;;;;;;3.97;1.50;;;;;;;0.83;63.43;97491.16;5039406;28;20045;-72
2022/01/07 05:39:20;;;;;;;5.40;1.92;;;;;;;0.79;63.46;97508.91;5031306;28;20050;-72
2022/01/07 05:41:46;;;;;;;6.20;1.95;;;;;;;0.76;63.36;97506.78;5046897;28;20417;-74
2022/01/07 05:44:16;;;;;;;9.15;2.10;;;;;;;0.61;63.20;97487.91;5034573;28;20053;-75
2022/01/07 05:46:47;;;;;;;4.78;1.80;;;;;;;0.72;63.01;97515.63;5025079;28;20055;-75
2022/01/07 05:49:13;;;;;;;6.05;1.98;;;;;;;0.64;62.98;97522.34;5039460;28;20506;-73
2022/01/07 05:51:41;;;;;;;5.63;1.80;;;;;;;0.63;62.34;97526.94;5048269;28;20068;-72
2022/01/07 05:54:08;;;;;;;5.65;2.10;;;;;;;0.52;62.48;97520.69;5032764;28;20048;-72
2022/01/07 05:56:35;;;;;;;4.33;1.63;;;;;;;0.57;62.32;97522.59;5050259;28;20137;-72
2022/01/07 05:59:01;;;;;;;5.72;1.90;;;;;;;0.57;61.94;97527.97;5031008;28;20045;-72
2022/01/07 06:01:28;;;;;;;4.18;1.50;;;;;;;0.59;61.43;97525.81;5046244;28;20044;-72
2022/01/07 06:03:58;;;;;;;5.45;1.65;;;;;;;0.63;60.93;97526.94;5049812;28;20049;-73
2022/01/07 06:06:27;;;;;;;4.38;1.63;;;;;;;0.66;60.79;97537.16;5047354;28;20052;-73
2022/01/07 06:08:53;;;;;;;7.53;1.80;;;;;;;0.62;60.57;97530.66;5057048;28;20176;-73
2022/01/07 06:11:20;;;;;;;6.65;2.00;;;;;;;0.62;60.04;97543.31;5062766;28;20049;-74
2022/01/07 06:13:46;;;;;;;7.28;2.38;;;;;;;0.59;59.94;97543.84;5056203;28;20143;-74
2022/01/07 06:16:15;;;;;;;11.07;3.03;;;;;;;0.55;59.67;97539.00;5059750;28;20048;-72
2022/01/07 06:18:51;;;;;;;11.63;2.97;;;;;;;0.65;59.31;97557.06;5048293;28;20514;-72
2022/01/07 06:21:21;;;;;;;10.20;3.03;;;;;;;0.66;59.37;97549.78;5054344;28;20045;-73
2022/01/07 06:23:49;;;;;;;10.93;2.63;;;;;;;0.55;59.35;97540.88;5050188;28;20816;-72
2022/01/07 06:26:16;;;;;;;13.05;2.70;;;;;;;0.62;59.24;97552.19;5048780;28;20052;-73
2022/01/07 06:28:42;;;;;;;7.70;2.40;;;;;;;0.62;58.85;97554.88;5052042;28;20505;-72
2022/01/07 06:31:09;;;;;;;6.55;2.03;;;;;;;0.62;58.97;97548.69;5043387;28;20053;-72
2022/01/07 06:33:38;;;;;;;8.57;2.03;;;;;;;0.61;58.99;97547.09;5051841;28;20041;-71
2022/01/07 06:36:04;;;;;;;6.38;2.10;;;;;;;0.63;58.51;97559.22;5050135;28;20054;-71
2022/01/07 06:38:32;;;;;;;5.22;1.92;;;;;;;0.65;58.10;97559.75;5037062;28;20064;-73
2022/01/07 06:40:58;;;;;;;4.95;1.75;;;;;;;0.67;58.05;97552.22;5047408;28;20049;-72
2022/01/07 06:43:24;;;;;;;15.05;2.80;;;;;;;0.67;58.18;97564.84;5052766;28;20548;-73
2022/01/07 06:45:51;;;;;;;5.43;1.90;;;;;;;0.69;58.43;97566.22;5053594;28;20049;-74
2022/01/07 06:48:18;;;;;;;8.52;2.08;;;;;;;0.67;58.00;97559.47;5043242;28;20053;-73
2022/01/07 06:50:47;;;;;;;4.43;1.75;;;;;;;0.65;57.38;97564.31;5047629;28;20441;-74
2022/01/07 06:53:14;;;;;;;6.28;1.90;;;;;;;0.67;57.09;97581.81;5050714;28;20056;-73
2022/01/07 06:55:41;;;;;;;3.33;1.63;;;;;;;0.70;56.76;97583.97;5052943;28;20037;-72
2022/01/07 06:58:08;;;;;;;5.43;1.98;;;;;;;0.67;56.76;97581.00;5026642;28;20128;-73
2022/01/07 07:00:34;;;;;;;9.43;2.25;;;;;;;0.59;56.74;97573.44;5058347;28;20123;-73
2022/01/07 07:03:00;;;;;;;6.80;2.03;;;;;;;0.62;56.39;97583.66;5053506;28;20053;-72
2022/01/07 07:05:26;;;;;;;6.13;2.22;;;;;;;0.59;56.12;97590.38;5041584;28;20046;-73
2022/01/07 07:07:55;;;;;;;4.95;1.85;;;;;;;0.60;56.70;97592.00;5037662;28;20052;-73
2022/01/07 07:10:21;;;;;;;6.30;2.15;;;;;;;0.68;56.57;97591.50;5048676;28;20057;-73
2022/01/07 07:12:49;;;;;;;4.50;1.80;;;;;;;0.65;56.22;97597.41;5042067;28;20107;-70
2022/01/07 07:15:15;;;;;;;;;;;;;;;0.70;55.95;97601.97;5062821;28;20060;-70
2022/01/07 07:17:44;;;;;;;6.15;1.90;;;;;;;0.65;55.24;97601.97;5060800;28;19928;-70
2022/01/07 07:20:12;;;;;;;9.73;2.85;;;;;;;0.61;54.99;97598.97;5039469;28;20111;-70
2022/01/07 07:22:38;;;;;;;10.05;2.72;;;;;;;0.53;55.10;97610.25;5052476;28;20052;-70
2022/01/07 07:25:05;;;;;;;7.95;2.45;;;;;;;0.42;55.15;97612.91;5050811;28;20037;-69
2022/01/07 07:27:31;;;;;;;7.32;2.15;;;;;;;0.45;55.89;97616.13;5027727;28;20080;-70
2022/01/07 07:29:58;;;;;;;8.90;2.67;;;;;;;0.52;56.06;97617.50;5046395;28;20069;-69
2022/01/07 07:32:28;;;;;;;7.10;2.35;;;;;;;0.55;55.70;97619.69;5038455;28;20137;-69
2022/01/07 07:37:23;;;;;;;9.70;2.95;;;;;;;0.56;55.51;97633.94;5052033;28;20601;-70
2022/01/07 07:39:49;;;;;;;9.27;3.10;;;;;;;0.56;55.08;97620.50;5035374;28;20052;-69
2022/01/07 07:42:15;;;;;;;10.88;3.42;;;;;;;0.54;55.02;97619.94;5044928;28;20064;-70
2022/01/07 07:44:48;;;;;;;7.93;2.50;;;;;;;0.69;55.36;97630.78;5034242;28;20083;-69
2022/01/07 07:47:16;;;;;;;11.68;3.10;;;;;;;0.74;54.91;97603.09;5032755;28;20053;-67
2022/01/07 07:49:42;;;;;;;8.30;2.67;;;;;;;0.88;55.21;97632.19;5035619;28;20053;-67
2022/01/07 07:52:08;;;;;;;7.05;2.25;;;;;;;0.80;54.89;97625.44;5033180;28;20045;-69
2022/01/07 07:54:34;;;;;;;6.25;2.15;;;;;;;0.77;54.78;97626.75;5033848;28;20046;-69
2022/01/07 07:57:01;;;;;;;7.63;2.30;;;;;;;0.76;54.57;97622.47;5058650;28;20053;-68
2022/01/07 07:59:27;;;;;;;7.63;2.40;;;;;;;0.78;54.16;97636.44;5037451;28;20041;-68
2022/01/07 08:01:53;;;;;;;4.68;1.70;;;;;;;0.70;53.84;97623.50;5042692;28;20041;-67
2022/01/07 08:04:21;;;;;;;7.72;2.03;;;;;;;0.65;54.33;97632.38;5047313;28;20094;-68
2022/01/07 08:06:48;;;;;;;7.20;2.20;;;;;;;0.70;53.71;97618.13;5050863;28;20048;-69
2022/01/07 08:09:14;;;;;;;6.97;1.95;;;;;;;0.59;53.27;97630.72;5033591;28;20049;-68
2022/01/07 08:11:58;;;;;;;5.32;1.60;;;;;;;0.61;52.73;97639.34;5031772;28;20049;-70
2022/01/07 08:17:08;;;;;;;3.22;1.45;;;;;;;0.46;52.16;97623.94;5047052;28;20091;-69
2022/01/07 08:19:36;;;;;;;8.93;1.85;;;;;;;0.49;51.37;97638.75;5040315;28;20052;-69
2022/01/07 08:22:03;;;;;;;6.22;1.67;;;;;;;0.62;51.43;97654.41;5044110;28;20041;-69
2022/01/07 08:24:29;;;;;;;6.00;1.50;;;;;;;0.59;51.55;97652.25;5047283;28;20065;-69
2022/01/07 08:26:55;;;;;;;6.95;1.40;;;;;;;0.66;50.55;97655.50;5044169;28;20041;-68
2022/01/07 08:29:25;;;;;;;4.85;1.40;;;;;;;0.70;49.98;97658.47;5055144;28;20061;-68
2022/01/07 08:34:53;;;;;;;6.40;1.70;;;;;;;0.61;49.68;97665.44;5046895;28;20518;-67
2022/01/07 08:37:21;;;;;;;5.82;1.85;;;;;;;0.56;49.63;97677.78;5052789;28;20055;-69
2022/01/07 08:39:48;;;;;;;7.45;1.80;;;;;;;0.56;49.86;97676.97;5043324;28;20049;-67
2022/01/07 08:42:14;;;;;;;6.25;1.83;;;;;;;0.72;49.88;97680.56;5042293;28;20608;-69
2022/01/07 08:44:40;;;;;;;4.88;1.67;;;;;;;0.78;50.18;97684.06;5038062;28;20092;-68
2022/01/07 08:47:07;;;;;;;5.63;1.60;;;;;;;0.56;50.19;97695.81;5044539;28;20041;-68
2022/01/07 08:49:33;;;;;;;4.80;1.55;;;;;;;0.55;50.68;97683.41;5049032;28;20441;-69
2022/01/07 08:52:00;;;;;;;5.20;1.90;;;;;;;0.48;50.57;97704.38;5045988;28;20060;-69
2022/01/07 08:54:27;;;;;;;5.00;1.77;;;;;;;0.42;50.56;97709.69;5050640;28;20044;-68
2022/01/07 08:56:53;;;;;;;7.60;2.17;;;;;;;0.41;50.77;97708.09;5043218;28;20041;-72
2022/01/07 08:59:19;;;;;;;5.95;1.75;;;;;;;0.40;50.98;97713.75;5045237;28;20057;-73
2022/01/07 09:01:45;;;;;;;5.00;1.60;;;;;;;0.33;51.46;97694.31;5035663;28;20041;-73
2022/01/07 09:04:12;;;;;;;4.97;1.92;;;;;;;0.36;51.92;97718.81;5046775;28;20412;-72
2022/01/07 09:06:38;;;;;;;5.35;1.75;;;;;;;0.30;51.62;97713.66;5047112;28;20064;-73
2022/01/07 09:09:06;;;;;;;4.00;1.55;;;;;;;0.56;51.69;97720.00;5032061;28;20056;-72
2022/01/07 09:11:33;;;;;;;7.15;1.88;;;;;;;0.56;51.36;97728.06;5037113;28;20049;-74
2022/01/07 09:13:59;;;;;;;5.47;1.80;;;;;;;0.64;51.41;97735.66;5054273;28;20075;-73
2022/01/07 09:16:25;;;;;;;9.85;2.00;;;;;;;0.88;50.72;97737.94;5036444;28;20069;-73
2022/01/07 09:18:52;;;;;;;5.40;1.48;;;;;;;1.16;49.92;97737.78;5046196;28;20132;-73
2022/01/07 09:21:18;;;;;;;7.25;1.80;;;;;;;1.14;49.22;97743.44;5043671;28;20405;-73
2022/01/07 09:23:45;;;;;;;4.90;1.67;;;;;;;1.09;49.01;97757.69;5045707;28;20045;-74
2022/01/07 09:26:13;;;;;;;3.88;1.33;;;;;;;1.18;48.72;97751.81;5029421;28;20080;-73
2022/01/07 09:28:39;;;;;;;5.25;1.60;;;;;;;1.35;48.05;97746.19;5045752;28;20319;-74
2022/01/07 09:31:06;;;;;;;4.05;1.38;;;;;;;1.45;47.70;97765.09;5048587;28;20119;-73
2022/01/07 09:33:32;;;;;;;6.50;1.70;;;;;;;1.55;46.94;97765.09;5062634;28;20073;-76
2022/01/07 09:35:59;;;;;;;7.18;1.60;;;;;;;1.67;47.26;97772.13;5012230;28;20088;-73
2022/01/07 09:38:26;;;;;;;6.68;1.75;;;;;;;1.68;46.92;97774.56;5043618;28;20045;-74
2022/01/07 09:40:52;;;;;;;7.78;1.58;;;;;;;2.01;46.66;97782.44;5066307;28;20168;-73
2022/01/07 09:43:20;;;;;;;6.28;1.88;;;;;;;2.28;46.23;97794.06;5041995;28;20061;-73
2022/01/07 09:45:46;;;;;;;7.90;2.20;;;;;;;2.31;45.65;97778.13;5044968;28;20127;-73
2022/01/07 09:48:12;;;;;;;5.85;1.88;;;;;;;2.07;45.48;97784.06;5046977;28;20123;-73
2022/01/07 09:50:39;;;;;;;5.97;1.95;;;;;;;1.75;45.26;97774.31;5033596;28;20096;-72
2022/01/07 09:53:06;;;;;;;5.45;1.88;;;;;;;1.80;45.21;97798.56;5044829;28;20061;-72
2022/01/07 09:55:33;;;;;;;4.65;1.50;;;;;;;1.64;45.50;97784.28;5045316;28;20077;-72
2022/01/07 09:57:59;;;;;;;4.78;1.67;;;;;;;1.66;45.33;97800.97;5041494;28;20057;-73
2022/01/07 10:00:32;;;;;;;4.68;1.40;;;;;;;1.79;44.87;97801.53;5040423;28;20049;-74
2022/01/07 10:03:00;;;;;;;6.80;1.60;;;;;;;1.74;44.97;97794.25;5047096;28;20037;-74
2022/01/07 10:05:28;;;;;;;5.05;1.70;;;;;;;2.05;44.42;97790.78;5043656;28;20498;-74
2022/01/07 10:07:54;;;;;;;4.88;1.80;;;;;;;2.78;43.06;97791.56;5049836;28;20114;-73
2022/01/07 10:10:20;;;;;;;5.40;1.75;;;;;;;3.57;41.62;97795.63;5046958;28;20556;-73
2022/01/07 10:12:53;;;;;;;7.63;1.75;;;;;;;4.44;40.70;97796.16;5024983;28;20112;-72
2022/01/07 10:15:21;;;;;;;6.22;1.60;;;;;;;4.99;39.74;97795.94;5048693;28;20395;-73
2022/01/07 10:17:56;;;;;;;;;;;;;;;5.36;38.70;97793.63;5051489;28;20560;-73
2022/01/07 10:20:24;;;;;;;5.03;1.70;;;;;;;5.89;38.14;97781.00;5046739;28;19928;-73
2022/01/07 10:22:51;;;;;;;;;;;;;;;6.40;37.17;97782.16;5048436;28;20119;-72
2022/01/07 10:25:23;;;;;;;7.38;2.30;;;;;;;6.54;37.56;97782.19;5034556;28;20374;-73
2022/01/07 10:27:51;;;;;;;6.72;2.35;;;;;;;6.92;37.04;97792.13;5049276;28;20501;-73
2022/01/07 10:30:25;;;;;;;10.82;2.80;;;;;;;7.24;35.80;97796.72;5051484;28;20053;-73
2022/01/07 10:32:53;;;;;;;12.27;5.05;;;;;;;7.48;35.88;97792.97;5040117;28;20128;-75
2022/01/07 10:35:23;;;;;;;9.82;3.92;;;;;;;7.69;35.30;97795.28;5040765;28;20405;-73
2022/01/07 10:37:53;;;;;;;9.52;3.03;;;;;;;7.29;35.52;97795.00;5044199;28;20091;-73
2022/01/07 10:40:31;;;;;;;8.55;2.80;;;;;;;7.40;35.34;97771.94;5056769;28;20571;-73
2022/01/07 10:43:11;;;;;;;10.45;3.53;;;;;;;7.88;34.21;97797.88;5041886;28;20432;-74
2022/01/07 10:45:39;;;;;;;9.10;3.90;;;;;;;8.43;33.58;97793.34;5044164;28;20080;-73
2022/01/07 10:48:08;;;;;;;8.95;3.40;;;;;;;8.94;32.85;97780.38;5035757;28;20045;-72
2022/01/07 10:50:42;;;;;;;11.15;2.75;;;;;;;9.46;31.90;97786.34;5037333;28;20095;-73
2022/01/07 10:53:22;;;;;;;8.25;2.90;;;;;;;9.93;30.95;97772.94;5044188;28;20414;-74
2022/01/07 10:56:05;;;;;;;7.97;2.60;;;;;;;10.19;31.13;97791.25;5053240;28;20052;-75
2022/01/07 10:58:50;;;;;;;8.02;3.00;;;;;;;10.59;30.23;97786.75;5018097;28;20620;-74
2022/01/07 11:01:26;;;;;;;8.63;2.92;;;;;;;11.00;29.97;97784.56;5048137;28;20048;-72
2022/01/07 11:03:53;;;;;;;12.43;3.22;;;;;;;11.15;30.00;97777.75;5051267;28;20040;-74
2022/01/07 11:06:25;;;;;;;9.45;3.47;;;;;;;11.39;29.52;97790.03;5044468;28;20053;-73
2022/01/07 11:08:53;;;;;;;8.55;2.67;;;;;;;11.39;29.42;97784.56;5051393;28;20452;-73
2022/01/07 11:11:20;;;;;;;10.02;2.97;;;;;;;11.45;29.34;97780.50;5066165;28;20664;-74
2022/01/07 11:13:46;;;;;;;;;;;;;;;11.63;29.56;97787.50;5074397;28;20052;-74
2022/01/07 11:16:13;;;;;;;11.55;3.78;;;;;;;11.58;29.56;97787.69;5050688;28;19971;-75
2022/01/07 11:18:42;;;;;;;11.75;4.00;;;;;;;11.44;29.47;97787.13;5038550;28;20045;-73
2022/01/07 11:21:10;;;;;;;10.02;3.78;;;;;;;11.04;29.85;97783.59;5042473;28;20057;-75
2022/01/07 11:23:39;;;;;;;10.48;3.28;;;;;;;10.53;30.38;97790.78;5054309;28;20036;-74
2022/01/07 11:26:07;;;;;;;9.27;3.22;;;;;;;10.00;30.92;97797.03;5045261;28;20052;-72
2022/01/07 11:28:34;;;;;;;9.07;3.10;;;;;;;9.60;31.02;97786.22;5042257;28;20072;-74
2022/01/07 11:31:03;;;;;;;9.93;2.70;;;;;;;9.61;30.80;97796.00;5055099;28;20549;-73
2022/01/07 11:33:30;;;;;;;8.70;2.55;;;;;;;9.39;30.74;97781.34;5050898;28;20509;-73
2022/01/07 11:35:57;;;;;;;9.23;2.83;;;;;;;9.49;30.82;97797.41;5039240;28;20053;-73
2022/01/07 11:42:37;;;;;;;8.93;2.67;;;;;;;8.88;30.98;97792.50;5061687;28;20045;-71
2022/01/07 11:45:28;;;;;;;6.70;2.30;;;;;;;8.36;31.68;97812.03;5042346;28;20099;-73
2022/01/07 11:47:58;;;;;;;7.07;2.40;;;;;;;8.13;32.28;97805.75;5040143;28;20041;-71
2022/01/07 11:50:26;;;;;;;7.68;2.35;;;;;;;7.77;32.49;97823.69;5018643;28;20072;-72
2022/01/07 11:52:57;;;;;;;12.43;3.70;;;;;;;7.85;33.12;97811.28;5064297;28;20047;-73
2022/01/07 11:55:29;;;;;;;8.77;2.47;;;;;;;7.71;32.48;97822.16;5049172;28;20048;-74